createdAt,value
2019-05-07T00:01:23.484Z,7.30
2019-05-07T00:06:29.358Z,12.43
2019-05-07T00:11:35.663Z,10.33
2019-05-07T00:16:42.444Z,13.20
2019-05-07T00:21:49.212Z,9.70
2019-05-07T00:26:55.355Z,12.00
2019-05-07T00:32:02.956Z,10.37
2019-05-07T00:37:18.475Z,9.93
2019-05-07T00:42:32.717Z,7.47
2019-05-07T00:47:38.350Z,9.28
2019-05-07T00:52:44.999Z,8.00
2019-05-07T00:57:52.732Z,9.97
2019-05-07T01:02:59.975Z,9.63
2019-05-07T01:08:05.595Z,11.63
2019-05-07T01:13:12.595Z,10.27
2019-05-07T01:18:18.796Z,12.47
2019-05-07T01:23:24.381Z,11.07
2019-05-07T01:28:29.895Z,11.57
2019-05-07T01:33:42.368Z,14.33
2019-05-07T01:38:49.046Z,10.70
2019-05-07T01:43:54.596Z,11.13
2019-05-07T01:49:02.889Z,10.33
2019-05-07T01:54:07.670Z,10.57
2019-05-07T01:59:13.201Z,12.87
2019-05-07T02:04:26.126Z,12.40
2019-05-07T02:09:38.694Z,12.80
2019-05-07T02:14:44.245Z,11.10
2019-05-07T02:19:49.913Z,14.17
2019-05-07T02:24:55.835Z,11.57
2019-05-07T02:30:04.130Z,8.60
2019-05-07T02:35:09.262Z,11.10
2019-05-07T02:40:22.856Z,10.27
2019-05-07T02:45:36.996Z,9.33
2019-05-07T02:50:53.106Z,13.32
2019-05-07T02:55:58.399Z,13.80
2019-05-07T03:01:05.000Z,9.33
2019-05-07T03:06:13.546Z,12.03
2019-05-07T03:11:18.887Z,6.20
2019-05-07T03:16:38.783Z,10.33
2019-05-07T03:21:53.834Z,8.17
2019-05-07T03:26:58.139Z,8.97
2019-05-07T03:32:16.035Z,8.93
2019-05-07T03:37:23.369Z,10.67
2019-05-07T03:42:33.477Z,17.70
2019-05-07T03:47:43.861Z,11.30
2019-05-07T03:52:49.303Z,10.20
2019-05-07T03:57:54.758Z,9.43
2019-05-07T04:03:03.584Z,10.50
2019-05-07T04:08:08.638Z,13.37
2019-05-07T04:13:14.916Z,11.33
2019-05-07T04:18:23.311Z,10.43
2019-05-07T04:23:27.726Z,11.30
2019-05-07T04:28:36.884Z,8.10
2019-05-07T04:33:43.928Z,10.87
2019-05-07T04:38:52.909Z,12.47
2019-05-07T04:43:57.563Z,12.63
2019-05-07T04:49:03.902Z,11.30
2019-05-07T04:54:12.894Z,9.97
2019-05-07T04:59:16.830Z,11.87
2019-05-07T05:04:30.310Z,9.50
2019-05-07T05:09:32.690Z,7.53
2019-05-07T05:14:37.140Z,12.13
2019-05-07T05:19:43.864Z,8.00
2019-05-07T05:25:08.678Z,9.20
2019-05-07T05:30:18.922Z,7.90
2019-05-07T05:35:24.421Z,8.87
2019-05-07T05:40:31.978Z,9.37
2019-05-07T05:45:39.572Z,8.47
2019-05-07T05:50:53.750Z,7.03
2019-05-07T05:56:02.371Z,8.07
2019-05-07T06:01:28.561Z,10.20
2019-05-07T06:06:39.688Z,9.87
2019-05-07T06:12:04.126Z,9.83
2019-05-07T06:17:22.391Z,6.33
2019-05-07T06:22:36.893Z,5.27
2019-05-07T06:27:42.424Z,9.48
2019-05-07T06:32:47.941Z,8.80
2019-05-07T06:37:53.729Z,9.60
2019-05-07T06:43:07.172Z,7.07
2019-05-07T06:48:12.830Z,6.27
2019-05-07T06:53:18.550Z,10.70
2019-05-07T06:58:26.120Z,11.00
2019-05-07T07:03:44.459Z,11.23
2019-05-07T07:08:57.589Z,6.53
2019-05-07T07:14:03.175Z,10.93
2019-05-07T07:19:09.593Z,9.00
2019-05-07T07:24:15.560Z,9.90
2019-05-07T07:29:22.725Z,8.93
2019-05-07T07:34:33.077Z,9.33
2019-05-07T07:39:38.021Z,7.95
2019-05-07T07:44:43.685Z,7.83
2019-05-07T07:49:49.447Z,10.00
2019-05-07T07:54:55.094Z,7.30
2019-05-07T08:00:11.926Z,10.33
2019-05-07T08:05:17.812Z,6.07
2019-05-07T08:10:23.728Z,9.87
2019-05-07T08:15:29.494Z,6.43
2019-05-07T08:20:35.025Z,9.77
2019-05-07T08:31:19.034Z,6.53
2019-05-07T08:36:24.760Z,5.43
2019-05-07T08:41:31.933Z,8.03
2019-05-07T08:46:48.074Z,9.33
2019-05-07T08:52:03.431Z,4.13
2019-05-07T08:57:09.459Z,11.00
2019-05-07T09:02:15.335Z,10.47
2019-05-07T09:07:21.908Z,9.43
2019-05-07T09:12:27.926Z,8.63
2019-05-07T09:17:33.481Z,13.33
2019-05-07T09:22:39.062Z,11.93
2019-05-07T09:27:47.891Z,10.23
2019-05-07T09:32:57.718Z,15.77
2019-05-07T09:38:03.738Z,7.80
2019-05-07T09:43:11.785Z,12.20
2019-05-07T09:48:18.694Z,8.53
2019-05-07T09:53:24.722Z,9.33
2019-05-07T09:58:36.734Z,24.47
2019-05-07T10:03:37.829Z,14.40
2019-05-07T10:08:43.734Z,12.93
2019-05-07T10:13:56.427Z,19.60
2019-05-07T10:19:02.337Z,16.13
2019-05-07T10:24:08.090Z,14.77
2019-05-07T10:29:13.851Z,14.83
2019-05-07T10:34:19.694Z,19.13
2019-05-07T10:39:26.418Z,14.63
2019-05-07T10:44:38.713Z,22.00
2019-05-07T10:49:48.985Z,19.67
2019-05-07T10:54:59.745Z,17.67
2019-05-07T11:00:03.211Z,15.23
2019-05-07T11:05:09.090Z,19.30
2019-05-07T11:10:17.936Z,22.03
2019-05-07T11:15:24.136Z,16.23
2019-05-07T11:20:31.897Z,15.13
2019-05-07T11:25:37.601Z,14.33
2019-05-07T11:30:43.797Z,18.93
2019-05-07T11:35:49.482Z,16.17
2019-05-07T11:40:55.769Z,13.83
2019-05-07T11:46:22.082Z,14.43
2019-05-07T11:51:36.005Z,16.87
2019-05-07T11:56:42.454Z,13.30
2019-05-07T12:01:52.725Z,11.97
2019-05-07T12:07:02.610Z,17.10
2019-05-07T12:12:08.316Z,13.53
2019-05-07T12:17:13.983Z,13.33
2019-05-07T12:22:38.884Z,16.60
2019-05-07T12:27:44.729Z,14.00
2019-05-07T12:33:03.795Z,14.90
2019-05-07T12:38:09.447Z,14.63
2019-05-07T12:43:15.082Z,7.97
2019-05-07T12:48:21.843Z,12.30
2019-05-07T12:53:42.532Z,7.45
2019-05-07T12:58:48.224Z,6.30
2019-05-07T13:04:02.659Z,9.23
2019-05-07T13:09:09.225Z,7.03
2019-05-07T13:14:14.991Z,5.97
2019-05-07T13:19:22.555Z,7.80
2019-05-07T13:24:28.290Z,7.43
2019-05-07T13:29:34.636Z,8.67
2019-05-07T13:34:43.766Z,9.27
2019-05-07T13:39:54.381Z,8.93
2019-05-07T13:45:07.138Z,10.10
2019-05-07T13:50:13.570Z,7.70
2019-05-07T13:55:21.831Z,13.07
2019-05-07T14:00:33.235Z,7.30
2019-05-07T14:05:39.868Z,8.10
2019-05-07T14:10:45.893Z,13.13
2019-05-07T14:16:00.114Z,8.20
2019-05-07T14:21:07.679Z,11.87
2019-05-07T14:26:13.440Z,7.27
2019-05-07T14:31:19.043Z,25.00
2019-05-07T14:36:32.015Z,9.33
2019-05-07T14:41:37.892Z,7.80
2019-05-07T14:46:50.746Z,10.07
2019-05-07T14:51:53.880Z,7.97
2019-05-07T14:56:58.822Z,9.87
2019-05-07T15:02:04.854Z,11.07
2019-05-07T15:07:12.184Z,11.03
2019-05-07T15:12:17.837Z,11.00
2019-05-07T15:17:32.605Z,11.13
2019-05-07T15:22:49.945Z,9.07
2019-05-07T15:27:56.298Z,11.35
2019-05-07T15:33:02.354Z,9.97
2019-05-07T15:38:08.190Z,12.83
2019-05-07T15:43:13.994Z,9.40
2019-05-07T15:48:21.875Z,13.07
2019-05-07T15:53:33.563Z,7.77
2019-05-07T15:58:39.442Z,11.73
2019-05-07T16:03:46.012Z,14.67
2019-05-07T16:08:55.721Z,14.93
2019-05-07T16:14:12.614Z,13.33
2019-05-07T16:19:27.895Z,9.90
2019-05-07T16:24:33.561Z,15.53
2019-05-07T16:29:39.192Z,16.90
2019-05-07T16:34:44.846Z,14.50
2019-05-07T16:39:52.575Z,15.00
2019-05-07T16:44:57.599Z,15.30
2019-05-07T16:50:04.214Z,16.47
2019-05-07T16:55:12.279Z,12.43
2019-05-07T17:00:27.493Z,10.30
2019-05-07T17:05:33.227Z,10.87
2019-05-07T17:10:38.881Z,8.53
2019-05-07T17:15:52.965Z,13.57
2019-05-07T17:20:59.371Z,10.38
2019-05-07T17:26:08.321Z,12.80
2019-05-07T17:31:13.958Z,9.00
2019-05-07T17:36:19.431Z,10.73
2019-05-07T17:41:27.302Z,9.30
2019-05-07T17:46:46.134Z,15.03
2019-05-07T17:51:49.630Z,13.43
2019-05-07T17:56:55.278Z,13.07
2019-05-07T18:02:09.047Z,15.03
2019-05-07T18:07:15.198Z,16.73
2019-05-07T18:12:22.509Z,14.43
2019-05-07T18:17:35.786Z,13.07
2019-05-07T18:22:52.122Z,20.70
2019-05-07T18:27:57.857Z,13.00
2019-05-07T18:33:12.011Z,14.53
2019-05-07T18:38:17.751Z,15.17
2019-05-07T18:43:23.284Z,15.03
2019-05-07T18:48:29.277Z,12.60
2019-05-07T18:53:34.811Z,10.70
2019-05-07T18:58:42.439Z,12.60
2019-05-07T19:03:48.398Z,15.87
2019-05-07T19:08:56.553Z,15.83
2019-05-07T19:14:03.100Z,13.50
2019-05-07T19:19:12.311Z,17.30
2019-05-07T19:24:18.091Z,19.10
2019-05-07T19:29:24.912Z,13.23
2019-05-07T19:34:32.428Z,21.47
2019-05-07T19:39:37.791Z,16.07
2019-05-07T19:44:43.371Z,19.43
2019-05-07T19:49:49.559Z,66.73
2019-05-07T19:55:00.698Z,16.80
2019-05-07T20:00:02.891Z,13.77
2019-05-07T20:05:08.644Z,15.03
2019-05-07T20:10:17.386Z,19.00
2019-05-07T20:15:25.738Z,226.13
2019-05-07T20:20:33.165Z,278.30
2019-05-07T20:25:39.466Z,302.80
2019-05-07T20:30:45.257Z,54.80
2019-05-07T20:35:52.751Z,78.13
2019-05-07T20:40:58.438Z,148.47
2019-05-07T20:46:04.712Z,10.38
2019-05-07T20:51:12.509Z,9.37
2019-05-07T20:56:19.150Z,6.53
2019-05-07T21:01:24.798Z,11.73
2019-05-07T21:06:36.863Z,12.73
2019-05-07T21:11:43.108Z,11.73
2019-05-07T21:16:51.748Z,8.93
2019-05-07T21:21:56.646Z,10.63
2019-05-07T21:27:02.900Z,12.73
2019-05-07T21:32:08.737Z,13.47
2019-05-07T21:37:16.508Z,19.80
2019-05-07T21:42:23.738Z,16.53
2019-05-07T21:47:32.688Z,18.03
2019-05-07T21:52:39.971Z,10.37
2019-05-07T21:57:57.398Z,278.90
2019-05-07T22:03:06.951Z,175.67
2019-05-07T22:08:12.592Z,19.33
2019-05-07T22:13:18.344Z,11.90
2019-05-07T22:18:24.003Z,11.30
2019-05-07T22:23:29.402Z,6.50
2019-05-07T22:28:35.965Z,7.28
2019-05-07T22:33:52.739Z,6.17
2019-05-07T22:38:58.418Z,9.37
2019-05-07T22:44:04.231Z,5.23
2019-05-07T22:49:12.095Z,7.87
2019-05-07T22:54:17.143Z,8.77
2019-05-07T22:59:22.778Z,8.83
2019-05-07T23:04:29.511Z,6.40
2019-05-07T23:09:36.350Z,6.28
2019-05-07T23:14:41.767Z,7.17
2019-05-07T23:19:47.191Z,9.50
2019-05-07T23:24:52.718Z,6.80
2019-05-07T23:29:58.304Z,5.63
2019-05-07T23:35:06.817Z,3.73
2019-05-07T23:40:18.698Z,3.67
2019-05-07T23:45:24.518Z,3.63
2019-05-07T23:50:32.388Z,5.80
2019-05-07T23:55:37.758Z,3.50
